Time;durP1;ratioP1;P1;durP2;ratioP2;P2;SDS_P1;SDS_P2;PMS_P1;PMS_P2;Temp;Humidity;BMP_temperature;BMP_pressure;BME280_temperature;BME280_humidity;BME280_pressure;Samples;Min_cycle;Max_cycle;Signal;HPM_P1;HPM_P2
2023/07/08 00:02:07;;;;;;;1.95;1.00;;;;;;;;;;5302148;28;20475;-76
2023/07/08 00:04:38;;;;;;;3.08;0.73;;;;;;;;;;5303100;28;20031;-76
2023/07/08 00:07:11;;;;;;;2.40;0.82;;;;;;;;;;5303256;28;20474;-76
2023/07/08 00:09:42;;;;;;;3.65;1.20;;;;;;;;;;5302113;28;20024;-76
2023/07/08 00:12:13;;;;;;;2.50;1.00;;;;;;;;;;5303189;28;20035;-77
2023/07/08 00:14:45;;;;;;;2.80;1.00;;;;;;;;;;5303121;28;20308;-77
2023/07/08 00:17:16;;;;;;;3.97;1.30;;;;;;;;;;5302701;28;20312;-77
2023/07/08 00:19:48;;;;;;;2.95;1.00;;;;;;;;;;5302622;28;20039;-77
2023/07/08 00:22:19;;;;;;;5.30;1.00;;;;;;;;;;5303212;28;20028;-76
2023/07/08 00:24:50;;;;;;;3.00;0.83;;;;;;;;;;5301743;28;20362;-77
2023/07/08 00:27:22;;;;;;;6.50;1.23;;;;;;;;;;5303242;28;20269;-77
2023/07/08 00:29:53;;;;;;;4.38;1.10;;;;;;;;;;5301829;28;20016;-76
2023/07/08 00:32:26;;;;;;;2.33;1.20;;;;;;;;;;5302469;28;20101;-77
2023/07/08 00:34:57;;;;;;;2.58;1.00;;;;;;;;;;5302611;28;20270;-77
2023/07/08 00:37:29;;;;;;;3.70;1.23;;;;;;;;;;5302107;28;20111;-77
2023/07/08 00:40:00;;;;;;;5.32;1.30;;;;;;;;;;5302666;28;20265;-77
2023/07/08 00:42:32;;;;;;;3.17;1.10;;;;;;;;;;5302859;28;20491;-77
2023/07/08 00:45:10;;;;;;;3.50;1.02;;;;;;;;;;5301915;28;20023;-77
2023/07/08 00:47:42;;;;;;;2.90;1.02;;;;;;;;;;5302585;28;20481;-77
2023/07/08 00:50:13;;;;;;;2.80;1.17;;;;;;;;;;5302996;28;20032;-77
2023/07/08 00:52:45;;;;;;;4.28;1.60;;;;;;;;;;5301626;28;20073;-77
2023/07/08 00:55:16;;;;;;;5.15;1.45;;;;;;;;;;5302843;28;20152;-77
2023/07/08 00:57:47;;;;;;;3.08;1.40;;;;;;;;;;5301446;28;20482;-77
2023/07/08 01:00:19;;;;;;;4.18;1.30;;;;;;;;;;5302955;28;20020;-77
2023/07/08 01:02:54;;;;;;;2.60;1.27;;;;;;;;;;5302202;28;20031;-77
2023/07/08 01:05:27;;;;;;;3.72;1.25;;;;;;;;;;5301815;28;20414;-76
2023/07/08 01:08:00;;;;;;;4.88;1.45;;;;;;;;;;5302426;28;20475;-77
2023/07/08 01:10:38;;;;;;;4.40;1.40;;;;;;;;;;5302419;28;20054;-77
2023/07/08 01:13:11;;;;;;;3.38;1.35;;;;;;;;;;5302314;28;20111;-77
2023/07/08 01:15:46;;;;;;;3.05;1.23;;;;;;;;;;5306052;28;20024;-77
2023/07/08 01:18:24;;;;;;;4.03;1.13;;;;;;;;;;5306781;28;20047;-77
2023/07/08 01:20:55;;;;;;;3.00;1.23;;;;;;;;;;5305896;28;20071;-77
2023/07/08 01:23:27;;;;;;;3.30;1.30;;;;;;;;;;5306401;28;20032;-77
2023/07/08 01:25:59;;;;;;;4.13;1.35;;;;;;;;;;5305649;28;20391;-77
2023/07/08 01:28:30;;;;;;;3.38;1.63;;;;;;;;;;5306332;28;20084;-76
2023/07/08 01:31:01;;;;;;;2.83;1.33;;;;;;;;;;5305943;28;20052;-75
2023/07/08 01:33:34;;;;;;;3.88;1.38;;;;;;;;;;5305492;28;20082;-76
2023/07/08 01:36:05;;;;;;;5.18;1.40;;;;;;;;;;5306210;28;20009;-77
2023/07/08 01:38:36;;;;;;;3.22;1.10;;;;;;;;;;5306109;28;20027;-77
2023/07/08 01:41:11;;;;;;;6.60;1.27;;;;;;;;;;5305041;28;20013;-76
2023/07/08 01:43:42;;;;;;;3.63;1.30;;;;;;;;;;5305875;28;20020;-76
2023/07/08 01:46:15;;;;;;;4.43;1.08;;;;;;;;;;5306265;28;20028;-76
2023/07/08 01:48:48;;;;;;;4.80;1.73;;;;;;;;;;5304811;28;20012;-76
2023/07/08 01:51:19;;;;;;;3.50;1.27;;;;;;;;;;5306052;28;20070;-76
2023/07/08 01:53:51;;;;;;;3.85;1.77;;;;;;;;;;5305418;28;20051;-76
2023/07/08 01:56:22;;;;;;;3.08;1.38;;;;;;;;;;5305265;28;20463;-76
2023/07/08 01:58:53;;;;;;;3.30;1.35;;;;;;;;;;5305492;28;20479;-76
2023/07/08 02:01:24;;;;;;;3.53;1.87;;;;;;;;;;5304768;28;20031;-77
2023/07/08 02:03:55;;;;;;;2.90;1.30;;;;;;;;;;5305669;28;20266;-76
2023/07/08 02:06:27;;;;;;;4.00;1.30;;;;;;;;;;5305511;28;20326;-77
2023/07/08 02:08:58;;;;;;;4.20;1.40;;;;;;;;;;5304795;28;20246;-77
2023/07/08 02:11:30;;;;;;;2.53;1.40;;;;;;;;;;5305337;28;20278;-76
2023/07/08 02:14:03;;;;;;;4.43;1.40;;;;;;;;;;5305421;28;20486;-77
2023/07/08 02:16:34;;;;;;;16.20;1.50;;;;;;;;;;5304741;28;20019;-77
2023/07/08 02:19:05;;;;;;;5.03;1.60;;;;;;;;;;5305156;28;20024;-76
2023/07/08 02:21:37;;;;;;;3.30;1.40;;;;;;;;;;5305463;28;20742;-77
2023/07/08 02:24:08;;;;;;;2.88;1.05;;;;;;;;;;5304051;28;20099;-76
2023/07/08 02:26:39;;;;;;;3.90;1.20;;;;;;;;;;5305144;28;20460;-76
2023/07/08 02:29:11;;;;;;;2.65;1.38;;;;;;;;;;5304654;28;20016;-77
2023/07/08 02:31:42;;;;;;;3.33;1.60;;;;;;;;;;5304504;28;20044;-76
2023/07/08 02:34:13;;;;;;;3.80;1.53;;;;;;;;;;5305111;28;20290;-76
2023/07/08 02:36:44;;;;;;;5.22;1.75;;;;;;;;;;5303929;28;20733;-77
2023/07/08 02:39:15;;;;;;;3.05;1.52;;;;;;;;;;5305106;28;20020;-76
2023/07/08 02:41:47;;;;;;;5.90;1.73;;;;;;;;;;5304433;28;20459;-76
2023/07/08 02:44:18;;;;;;;3.83;1.70;;;;;;;;;;5304324;28;20052;-77
2023/07/08 02:46:49;;;;;;;5.23;1.77;;;;;;;;;;5304610;28;20677;-77
2023/07/08 02:49:20;;;;;;;4.40;1.60;;;;;;;;;;5304993;28;20262;-77
2023/07/08 02:51:51;;;;;;;3.78;1.63;;;;;;;;;;5303410;28;20056;-77
2023/07/08 02:54:22;;;;;;;4.17;1.40;;;;;;;;;;5304757;28;20024;-77
2023/07/08 02:56:54;;;;;;;3.85;1.52;;;;;;;;;;5304617;28;20258;-77
2023/07/08 02:59:25;;;;;;;6.35;1.95;;;;;;;;;;5303803;28;20078;-77
2023/07/08 03:01:56;;;;;;;4.97;1.55;;;;;;;;;;5304458;28;20017;-77
2023/07/08 03:04:27;;;;;;;7.87;2.07;;;;;;;;;;5303514;28;20054;-77
2023/07/08 03:06:59;;;;;;;7.13;1.77;;;;;;;;;;5304421;28;20280;-77
2023/07/08 03:09:32;;;;;;;5.53;2.10;;;;;;;;;;5304136;28;20073;-76
2023/07/08 03:12:03;;;;;;;4.45;1.92;;;;;;;;;;5303386;28;20107;-77
2023/07/08 03:14:34;;;;;;;4.20;1.92;;;;;;;;;;5304099;28;20103;-77
2023/07/08 03:17:05;;;;;;;3.65;1.73;;;;;;;;;;5304096;28;20371;-77
2023/07/08 03:19:37;;;;;;;5.07;1.65;;;;;;;;;;5303130;28;20069;-77
2023/07/08 03:22:08;;;;;;;4.68;2.28;;;;;;;;;;5303995;28;20446;-76
2023/07/08 03:24:45;;;;;;;5.45;1.80;;;;;;;;;;5303685;28;20017;-76
2023/07/08 03:27:17;;;;;;;5.35;1.85;;;;;;;;;;5303241;28;20538;-76
2023/07/08 03:29:48;;;;;;;14.32;2.10;;;;;;;;;;5303195;28;20046;-77
2023/07/08 03:32:19;;;;;;;5.05;1.85;;;;;;;;;;5303358;28;20055;-77
2023/07/08 03:34:50;;;;;;;4.35;1.70;;;;;;;;;;5302882;28;20040;-77
2023/07/08 03:37:22;;;;;;;4.35;2.10;;;;;;;;;;5303120;28;20020;-77
2023/07/08 03:39:53;;;;;;;4.05;1.42;;;;;;;;;;5302450;28;20490;-77
2023/07/08 03:42:25;;;;;;;6.27;2.13;;;;;;;;;;5303435;28;20038;-76
2023/07/08 03:44:56;;;;;;;3.17;1.80;;;;;;;;;;5303506;28;20262;-77
2023/07/08 03:47:27;;;;;;;2.70;1.75;;;;;;;;;;5302772;28;20038;-77
2023/07/08 03:49:59;;;;;;;3.20;1.90;;;;;;;;;;5303375;28;20378;-77
2023/07/08 03:52:30;;;;;;;3.35;1.60;;;;;;;;;;5303067;28;20385;-77
2023/07/08 03:55:03;;;;;;;4.85;1.65;;;;;;;;;;5302672;28;20019;-77
2023/07/08 03:57:34;;;;;;;3.67;2.00;;;;;;;;;;5303351;28;20028;-77
2023/07/08 04:00:09;;;;;;;4.13;1.60;;;;;;;;;;5303206;28;20016;-77
2023/07/08 04:02:41;;;;;;;5.15;1.77;;;;;;;;;;5302119;28;20068;-77
2023/07/08 04:05:16;;;;;;;2.85;1.70;;;;;;;;;;5303270;28;20173;-77
2023/07/08 04:07:47;;;;;;;6.43;1.83;;;;;;;;;;5302209;28;20016;-77
2023/07/08 04:10:18;;;;;;;4.03;1.45;;;;;;;;;;5303454;28;20012;-77
2023/07/08 04:12:50;;;;;;;3.55;1.85;;;;;;;;;;5302878;28;20035;-76
2023/07/08 04:15:25;;;;;;;2.60;1.50;;;;;;;;;;5302342;28;20016;-76
2023/07/08 04:17:57;;;;;;;4.35;1.80;;;;;;;;;;5303072;28;20035;-76
2023/07/08 04:20:29;;;;;;;5.90;1.88;;;;;;;;;;5302946;28;20020;-76
2023/07/08 04:23:00;;;;;;;3.20;1.70;;;;;;;;;;5301970;28;20028;-77
2023/07/08 04:25:32;;;;;;;3.83;1.83;;;;;;;;;;5302942;28;20024;-76
2023/07/08 04:28:03;;;;;;;2.72;1.50;;;;;;;;;;5302848;28;20050;-77
2023/07/08 04:30:40;;;;;;;3.88;1.83;;;;;;;;;;5301729;28;20063;-76
2023/07/08 04:33:12;;;;;;;4.75;1.60;;;;;;;;;;5303112;28;20024;-76
2023/07/08 04:35:44;;;;;;;4.03;1.80;;;;;;;;;;5301487;28;20024;-76
2023/07/08 04:38:21;;;;;;;3.05;1.63;;;;;;;;;;5302951;28;20481;-76
2023/07/08 04:40:53;;;;;;;3.85;1.88;;;;;;;;;;5302214;28;20019;-76
2023/07/08 04:43:28;;;;;;;2.95;1.92;;;;;;;;;;5301849;28;20367;-75
2023/07/08 04:46:00;;;;;;;2.95;1.60;;;;;;;;;;5302779;28;20939;-76
2023/07/08 04:48:32;;;;;;;3.40;1.85;;;;;;;;;;5305211;28;20042;-76
2023/07/08 04:51:03;;;;;;;4.63;1.85;;;;;;;;;;5305936;28;20486;-76
2023/07/08 04:53:35;;;;;;;3.42;1.95;;;;;;;;;;5306979;28;20027;-76
2023/07/08 04:56:07;;;;;;;3.50;1.70;;;;;;;;;;5306708;28;20145;-75
2023/07/08 04:58:38;;;;;;;2.85;1.88;;;;;;;;;;5306312;28;20333;-76
2023/07/08 05:01:10;;;;;;;3.30;1.75;;;;;;;;;;5306643;28;20099;-76
2023/07/08 05:03:41;;;;;;;5.03;2.33;;;;;;;;;;5306673;28;20466;-76
2023/07/08 05:06:12;;;;;;;5.13;2.42;;;;;;;;;;5306012;28;20023;-76
2023/07/08 05:08:43;;;;;;;3.30;1.70;;;;;;;;;;5306284;28;20494;-77
2023/07/08 05:11:14;;;;;;;4.00;1.75;;;;;;;;;;5305929;28;20065;-77
2023/07/08 05:13:46;;;;;;;2.73;1.50;;;;;;;;;;5306106;28;20379;-77
2023/07/08 05:16:17;;;;;;;2.83;1.77;;;;;;;;;;5306962;28;20262;-75
2023/07/08 05:18:48;;;;;;;3.13;1.75;;;;;;;;;;5305484;28;20266;-76
2023/07/08 05:21:20;;;;;;;2.60;1.65;;;;;;;;;;5306485;28;20026;-76
2023/07/08 05:23:51;;;;;;;2.80;1.70;;;;;;;;;;5305711;28;20446;-76
2023/07/08 05:26:22;;;;;;;4.60;2.08;;;;;;;;;;5305770;28;20414;-76
2023/07/08 05:28:53;;;;;;;3.63;1.63;;;;;;;;;;5305883;28;20004;-76
2023/07/08 05:31:24;;;;;;;5.97;2.10;;;;;;;;;;5305954;28;20784;-76
2023/07/08 05:33:56;;;;;;;3.10;1.63;;;;;;;;;;5305166;28;20274;-75
2023/07/08 05:36:27;;;;;;;4.00;1.92;;;;;;;;;;5306199;28;20367;-76
2023/07/08 05:38:58;;;;;;;3.53;1.87;;;;;;;;;;5305010;28;20031;-76
2023/07/08 05:41:30;;;;;;;3.50;1.83;;;;;;;;;;5306186;28;20762;-76
2023/07/08 05:44:01;;;;;;;2.80;1.93;;;;;;;;;;5305996;28;20028;-75
2023/07/08 05:46:32;;;;;;;4.38;1.55;;;;;;;;;;5305209;28;20258;-76
2023/07/08 05:49:03;;;;;;;5.67;1.87;;;;;;;;;;5305761;28;20058;-76
2023/07/08 05:51:36;;;;;;;6.20;2.42;;;;;;;;;;5305596;28;20297;-76
2023/07/08 05:54:07;;;;;;;4.05;2.05;;;;;;;;;;5304980;28;20102;-76
2023/07/08 05:56:38;;;;;;;3.13;1.93;;;;;;;;;;5305787;28;20099;-76
2023/07/08 05:59:09;;;;;;;3.35;2.15;;;;;;;;;;5304959;28;20258;-76
2023/07/08 06:01:40;;;;;;;3.17;1.93;;;;;;;;;;5304419;28;20039;-77
2023/07/08 06:04:12;;;;;;;5.63;2.63;;;;;;;;;;5305422;28;20274;-77
2023/07/08 06:06:43;;;;;;;4.70;2.28;;;;;;;;;;5305406;28;20480;-76
2023/07/08 06:09:14;;;;;;;7.43;2.80;;;;;;;;;;5305054;28;20012;-76
2023/07/08 06:11:45;;;;;;;7.60;2.47;;;;;;;;;;5305039;28;20762;-76
2023/07/08 06:14:16;;;;;;;6.03;3.00;;;;;;;;;;5304756;28;20103;-76
2023/07/08 06:16:48;;;;;;;6.60;2.07;;;;;;;;;;5304764;28;20262;-77
2023/07/08 06:19:19;;;;;;;4.40;3.00;;;;;;;;;;5304941;28;20768;-76
2023/07/08 06:21:50;;;;;;;3.93;2.37;;;;;;;;;;5301820;28;20012;-78
2023/07/08 06:24:21;;;;;;;5.10;2.30;;;;;;;;;;5302469;28;20322;-75
2023/07/08 06:26:52;;;;;;;4.28;2.10;;;;;;;;;;5302297;28;20378;-76
2023/07/08 06:29:24;;;;;;;4.27;2.40;;;;;;;;;;5302261;28;20020;-76
2023/07/08 06:31:55;;;;;;;3.40;2.00;;;;;;;;;;5302551;28;20395;-76
2023/07/08 06:34:26;;;;;;;4.70;2.60;;;;;;;;;;5302746;28;20027;-76
2023/07/08 06:36:57;;;;;;;4.97;2.80;;;;;;;;;;5303465;28;20142;-75
2023/07/08 06:39:29;;;;;;;4.87;2.30;;;;;;;;;;5303465;28;20262;-75
2023/07/08 06:42:00;;;;;;;3.85;2.65;;;;;;;;;;5302653;28;20737;-75
2023/07/08 06:44:31;;;;;;;8.93;2.85;;;;;;;;;;5301604;28;20050;-76
2023/07/08 06:47:02;;;;;;;7.90;2.57;;;;;;;;;;5302399;28;20379;-75
2023/07/08 06:49:33;;;;;;;4.95;2.08;;;;;;;;;;5301261;28;20281;-74
2023/07/08 06:52:05;;;;;;;5.32;2.53;;;;;;;;;;5302364;28;20050;-75
2023/07/08 06:54:36;;;;;;;5.82;2.83;;;;;;;;;;5303308;28;20027;-75
2023/07/08 06:57:07;;;;;;;4.00;2.78;;;;;;;;;;5303571;28;20020;-76
2023/07/08 06:59:39;;;;;;;6.13;3.33;;;;;;;;;;5304222;28;20042;-75
2023/07/08 07:02:10;;;;;;;5.28;2.80;;;;;;;;;;5304506;28;20528;-76
2023/07/08 07:04:41;;;;;;;5.30;2.20;;;;;;;;;;5303357;28;20013;-76
2023/07/08 07:07:13;;;;;;;4.90;3.08;;;;;;;;;;5304554;28;20103;-76
2023/07/08 07:09:44;;;;;;;4.88;3.08;;;;;;;;;;5303873;28;20009;-74
2023/07/08 07:12:15;;;;;;;3.97;2.50;;;;;;;;;;5302369;28;20050;-74
2023/07/08 07:14:46;;;;;;;6.40;2.70;;;;;;;;;;5303636;28;20008;-75
2023/07/08 07:17:18;;;;;;;5.65;3.15;;;;;;;;;;5304491;28;20026;-75
2023/07/08 07:19:50;;;;;;;5.50;2.75;;;;;;;;;;5302924;28;20020;-74
2023/07/08 07:22:21;;;;;;;5.93;2.73;;;;;;;;;;5304016;28;20074;-74
2023/07/08 07:24:52;;;;;;;6.28;3.10;;;;;;;;;;5302838;28;20297;-75
2023/07/08 07:27:23;;;;;;;4.65;2.65;;;;;;;;;;5303634;28;20016;-74
2023/07/08 07:29:55;;;;;;;5.37;2.90;;;;;;;;;;5303567;28;20016;-75
2023/07/08 07:32:26;;;;;;;5.32;2.63;;;;;;;;;;5302632;28;20787;-74
2023/07/08 07:34:59;;;;;;;5.03;2.53;;;;;;;;;;5303827;28;20016;-73
2023/07/08 07:37:30;;;;;;;4.88;2.60;;;;;;;;;;5303462;28;20031;-73
2023/07/08 07:40:01;;;;;;;4.17;2.00;;;;;;;;;;5302675;28;20016;-73
2023/07/08 07:42:32;;;;;;;5.68;3.28;;;;;;;;;;5303591;28;20752;-72
2023/07/08 07:45:04;;;;;;;3.70;3.23;;;;;;;;;;5303513;28;20011;-72
2023/07/08 07:47:35;;;;;;;5.07;3.00;;;;;;;;;;5302510;28;20262;-73
2023/07/08 07:50:07;;;;;;;4.82;3.20;;;;;;;;;;5303237;28;20011;-73
2023/07/08 07:52:40;;;;;;;9.13;3.35;;;;;;;;;;5302426;28;20118;-73
2023/07/08 07:55:11;;;;;;;3.95;2.75;;;;;;;;;;5303562;28;20025;-73
2023/07/08 07:57:45;;;;;;;5.65;3.33;;;;;;;;;;5302946;28;20394;-74
2023/07/08 08:00:17;;;;;;;3.67;2.80;;;;;;;;;;5302628;28;20012;-74
2023/07/08 08:02:48;;;;;;;4.38;3.20;;;;;;;;;;5302654;28;20466;-77
2023/07/08 08:05:19;;;;;;;6.68;3.58;;;;;;;;;;5303495;28;20356;-76
2023/07/08 08:07:51;;;;;;;5.80;3.60;;;;;;;;;;5302178;28;20020;-74
2023/07/08 08:10:22;;;;;;;4.03;3.40;;;;;;;;;;5303268;28;20293;-75
2023/07/08 08:12:53;;;;;;;5.57;3.47;;;;;;;;;;5302656;28;20889;-74
2023/07/08 08:15:24;;;;;;;4.97;3.20;;;;;;;;;;5302472;28;20307;-75
2023/07/08 08:17:56;;;;;;;5.35;3.00;;;;;;;;;;5302943;28;20250;-75
2023/07/08 08:20:29;;;;;;;4.78;2.58;;;;;;;;;;5302849;28;20012;-75
2023/07/08 08:23:00;;;;;;;5.85;3.00;;;;;;;;;;5301584;28;20374;-76
2023/07/08 08:25:31;;;;;;;8.15;3.45;;;;;;;;;;5302934;28;20103;-75
2023/07/08 08:28:03;;;;;;;4.00;2.77;;;;;;;;;;5302267;28;20039;-75
2023/07/08 08:30:34;;;;;;;4.22;3.05;;;;;;;;;;5302482;28;20071;-76
2023/07/08 08:33:06;;;;;;;6.30;3.55;;;;;;;;;;5301782;28;20117;-74
2023/07/08 08:35:38;;;;;;;4.85;3.25;;;;;;;;;;5301820;28;20028;-75
2023/07/08 08:38:09;;;;;;;4.70;2.63;;;;;;;;;;5302629;28;20375;-74
2023/07/08 08:40:41;;;;;;;5.35;3.70;;;;;;;;;;5302279;28;20281;-75
2023/07/08 08:43:29;;;;;;;5.90;3.75;;;;;;;;;;5302043;28;20012;-75
2023/07/08 08:46:00;;;;;;;4.32;3.38;;;;;;;;;;5302764;28;20031;-75
2023/07/08 08:48:36;;;;;;;5.97;3.42;;;;;;;;;;5302324;28;20028;-75
2023/07/08 08:51:11;;;;;;;5.03;3.65;;;;;;;;;;5301878;28;20435;-74
2023/07/08 08:53:43;;;;;;;4.03;3.40;;;;;;;;;;5302230;28;20020;-75
2023/07/08 08:56:20;;;;;;;4.65;3.45;;;;;;;;;;5301928;28;20020;-75
2023/07/08 08:58:57;;;;;;;4.68;3.53;;;;;;;;;;5302062;28;20360;-75
2023/07/08 09:01:28;;;;;;;6.63;4.13;;;;;;;;;;5302722;28;20028;-75
2023/07/08 09:04:00;;;;;;;4.07;3.20;;;;;;;;;;5301709;28;20020;-75
2023/07/08 09:06:35;;;;;;;7.03;3.87;;;;;;;;;;5302335;28;20285;-76
2023/07/08 09:09:16;;;;;;;3.88;3.13;;;;;;;;;;5302241;28;20378;-76
2023/07/08 09:11:56;;;;;;;4.28;3.83;;;;;;;;;;5301348;28;20467;-74
2023/07/08 09:14:28;;;;;;;5.22;3.35;;;;;;;;;;5302401;28;20012;-73
2023/07/08 09:17:06;;;;;;;3.10;2.80;;;;;;;;;;5301606;28;20020;-74
2023/07/08 09:19:41;;;;;;;3.28;2.83;;;;;;;;;;5302083;28;20028;-74
2023/07/08 09:22:19;;;;;;;4.97;2.65;;;;;;;;;;5302641;28;20024;-74
2023/07/08 09:24:56;;;;;;;4.20;3.20;;;;;;;;;;5301272;28;20496;-73
2023/07/08 09:27:27;;;;;;;;;;;;;;;;;;5302682;28;20458;-74
2023/07/08 09:29:58;;;;;;;4.32;3.92;;;;;;;;;;5301968;28;19904;-74
2023/07/08 09:32:33;;;;;;;4.17;3.40;;;;;;;;;;5301082;28;20043;-74
2023/07/08 09:35:06;;;;;;;4.57;3.50;;;;;;;;;;5303961;28;20432;-74
2023/07/08 09:37:38;;;;;;;3.90;3.45;;;;;;;;;;5306004;28;20016;-74
2023/07/08 09:40:29;;;;;;;6.60;3.67;;;;;;;;;;5305182;28;20081;-75
2023/07/08 09:43:23;;;;;;;4.53;3.03;;;;;;;;;;5305064;28;20105;-74
2023/07/08 09:45:57;;;;;;;4.45;3.50;;;;;;;;;;5304824;28;20107;-71
2023/07/08 09:48:30;;;;;;;3.80;2.95;;;;;;;;;;5305752;28;20012;-77
2023/07/08 09:51:01;;;;;;;4.80;2.97;;;;;;;;;;5305531;28;20016;-78
2023/07/08 09:53:33;;;;;;;4.15;2.72;;;;;;;;;;5305221;28;20073;-78
2023/07/08 09:56:05;;;;;;;3.60;2.65;;;;;;;;;;5305702;28;20016;-77
2023/07/08 09:58:42;;;;;;;3.88;3.08;;;;;;;;;;5305648;28;20015;-76
2023/07/08 10:01:24;;;;;;;4.25;2.78;;;;;;;;;;5304960;28;20027;-77
2023/07/08 10:03:59;;;;;;;3.65;3.30;;;;;;;;;;5305370;28;20094;-76
2023/07/08 10:06:32;;;;;;;6.10;2.80;;;;;;;;;;5304758;28;20482;-77
2023/07/08 10:09:05;;;;;;;6.75;3.33;;;;;;;;;;5305243;28;20020;-77
2023/07/08 10:11:42;;;;;;;5.25;2.88;;;;;;;;;;5305297;28;20427;-77
2023/07/08 10:14:25;;;;;;;3.20;2.90;;;;;;;;;;5304857;28;20111;-77
2023/07/08 10:16:56;;;;;;;3.90;3.15;;;;;;;;;;5305115;28;20023;-77
2023/07/08 10:19:28;;;;;;;4.13;3.70;;;;;;;;;;5305201;28;20012;-77
2023/07/08 10:21:59;;;;;;;3.33;2.67;;;;;;;;;;5304209;28;20343;-77
2023/07/08 10:24:36;;;;;;;7.07;3.73;;;;;;;;;;5305074;28;20403;-77
2023/07/08 10:27:07;;;;;;;;;;;;;;;;;;5305514;28;20051;-77
2023/07/08 10:29:41;;;;;;;5.73;3.37;;;;;;;;;;5304397;28;19908;-77
2023/07/08 10:32:21;;;;;;;4.20;3.15;;;;;;;;;;5304979;28;20471;-79
2023/07/08 10:34:58;;;;;;;4.85;3.50;;;;;;;;;;5303677;28;20047;-77
2023/07/08 10:37:30;;;;;;;5.18;3.58;;;;;;;;;;5304728;28;20107;-77
2023/07/08 10:40:12;;;;;;;6.37;3.80;;;;;;;;;;5304623;28;20453;-77
2023/07/08 10:42:53;;;;;;;3.30;2.85;;;;;;;;;;5303864;28;20024;-77
2023/07/08 10:45:45;;;;;;;4.30;3.25;;;;;;;;;;5304454;28;20099;-77
2023/07/08 10:48:39;;;;;;;5.82;3.70;;;;;;;;;;5273333;28;20044;-78
2023/07/08 10:51:29;;;;;;;4.82;3.05;;;;;;;;;;5295970;28;20111;-79
2023/07/08 10:54:15;;;;;;;6.53;4.32;;;;;;;;;;5304651;28;20024;-78
2023/07/08 10:56:53;;;;;;;4.88;3.30;;;;;;;;;;5303499;28;20050;-78
2023/07/08 10:59:42;;;;;;;3.50;3.00;;;;;;;;;;5304473;28;20016;-78
2023/07/08 11:02:22;;;;;;;4.28;3.53;;;;;;;;;;5304742;28;20027;-77
2023/07/08 11:04:59;;;;;;;3.80;3.08;;;;;;;;;;5303289;28;20028;-77
2023/07/08 11:07:30;;;;;;;6.15;3.60;;;;;;;;;;5304326;28;20371;-77
2023/07/08 11:10:13;;;;;;;4.25;3.17;;;;;;;;;;5303346;28;20036;-77
2023/07/08 11:12:50;;;;;;;4.38;3.85;;;;;;;;;;5303995;28;20028;-77
2023/07/08 11:15:25;;;;;;;4.90;3.67;;;;;;;;;;5304389;28;20416;-76
2023/07/08 11:18:19;;;;;;;4.05;3.47;;;;;;;;;;5303253;28;20016;-76
2023/07/08 11:21:17;;;;;;;4.88;3.75;;;;;;;;;;5294900;28;20051;-77
2023/07/08 11:23:48;;;;;;;;;;;;;;;;;;5299471;28;20028;-76
2023/07/08 11:26:23;;;;;;;4.68;3.45;;;;;;;;;;5304034;28;19915;-78
2023/07/08 11:28:58;;;;;;;5.90;3.50;;;;;;;;;;5302402;28;20035;-77
2023/07/08 11:31:32;;;;;;;4.53;3.53;;;;;;;;;;5302874;28;20044;-74
2023/07/08 11:34:04;;;;;;;4.85;3.67;;;;;;;;;;5303800;28;20462;-76
2023/07/08 11:36:36;;;;;;;4.57;3.42;;;;;;;;;;5303599;28;20073;-74
2023/07/08 11:39:26;;;;;;;4.68;3.65;;;;;;;;;;5302753;28;20347;-75
2023/07/08 11:42:16;;;;;;;6.88;4.00;;;;;;;;;;5303448;28;20112;-75
2023/07/08 11:44:51;;;;;;;6.63;3.58;;;;;;;;;;5302521;28;20020;-75
2023/07/08 11:47:39;;;;;;;4.95;4.35;;;;;;;;;;5303659;28;20483;-75
2023/07/08 11:50:31;;;;;;;5.13;3.50;;;;;;;;;;5303581;28;20012;-75
2023/07/08 11:53:06;;;;;;;5.90;4.00;;;;;;;;;;5301901;28;20094;-75
2023/07/08 11:55:40;;;;;;;5.35;3.25;;;;;;;;;;5303090;28;20024;-75
2023/07/08 11:58:20;;;;;;;6.03;4.18;;;;;;;;;;5302956;28;20028;-74
2023/07/08 12:00:58;;;;;;;3.97;3.33;;;;;;;;;;5302368;28;20020;-75
2023/07/08 12:03:29;;;;;;;;;;;;;;;;;;5302993;28;20052;-76
2023/07/08 12:06:06;;;;;;;5.30;3.90;;;;;;;;;;5302357;28;19942;-74
2023/07/08 12:08:40;;;;;;;5.45;3.70;;;;;;;;;;5302209;28;20606;-74
2023/07/08 12:11:12;;;;;;;6.78;3.90;;;;;;;;;;5303260;28;20486;-73
2023/07/08 12:13:43;;;;;;;6.45;4.32;;;;;;;;;;5302017;28;20028;-73
2023/07/08 12:16:14;;;;;;;5.80;3.43;;;;;;;;;;5303241;28;20020;-73
2023/07/08 12:18:47;;;;;;;5.83;3.80;;;;;;;;;;5302421;28;20023;-73
2023/07/08 12:21:18;;;;;;;7.32;4.18;;;;;;;;;;5302527;28;20018;-72
2023/07/08 12:23:50;;;;;;;7.17;4.40;;;;;;;;;;5302736;28;20016;-73
2023/07/08 12:26:21;;;;;;;6.53;3.87;;;;;;;;;;5303112;28;20306;-72
2023/07/08 12:28:53;;;;;;;6.43;3.88;;;;;;;;;;5301298;28;20024;-73
2023/07/08 12:31:25;;;;;;;6.03;4.03;;;;;;;;;;5320873;28;20043;-73
2023/07/08 12:33:57;;;;;;;6.88;3.97;;;;;;;;;;5314358;28;20282;-71
2023/07/08 12:36:30;;;;;;;4.35;3.47;;;;;;;;;;5322677;28;20030;-73
2023/07/08 12:39:01;;;;;;;6.68;4.45;;;;;;;;;;5323164;28;20028;-72
2023/07/08 12:41:34;;;;;;;4.05;3.33;;;;;;;;;;5322348;28;20019;-72
2023/07/08 12:44:13;;;;;;;6.82;4.05;;;;;;;;;;5323170;28;20012;-71
2023/07/08 12:46:45;;;;;;;6.05;4.10;;;;;;;;;;5323023;28;20708;-71
2023/07/08 12:49:16;;;;;;;5.85;3.70;;;;;;;;;;5323105;28;20062;-71
2023/07/08 12:51:48;;;;;;;5.38;3.40;;;;;;;;;;5322226;28;20472;-71
2023/07/08 12:54:19;;;;;;;7.78;3.70;;;;;;;;;;5322000;28;20138;-74
2023/07/08 12:56:50;;;;;;;4.50;3.23;;;;;;;;;;5322567;28;20024;-75
2023/07/08 12:59:23;;;;;;;4.07;3.17;;;;;;;;;;5323980;28;20031;-73
2023/07/08 13:01:54;;;;;;;6.30;3.60;;;;;;;;;;5323209;28;20016;-73
2023/07/08 13:04:26;;;;;;;5.93;2.97;;;;;;;;;;5322674;28;20458;-74
2023/07/08 13:07:00;;;;;;;4.68;2.55;;;;;;;;;;5323278;28;20015;-74
2023/07/08 13:09:31;;;;;;;4.93;2.83;;;;;;;;;;5325619;28;20535;-72
2023/07/08 13:12:24;;;;;;;6.13;3.50;;;;;;;;;;5327591;28;20031;-72
2023/07/08 13:14:56;;;;;;;4.70;3.00;;;;;;;;;;5327678;28;20311;-73
2023/07/08 13:17:27;;;;;;;4.53;3.08;;;;;;;;;;5326994;28;20031;-74
2023/07/08 13:19:59;;;;;;;5.10;2.88;;;;;;;;;;5327511;28;20020;-74
2023/07/08 13:22:30;;;;;;;4.97;2.92;;;;;;;;;;5327635;28;20508;-73
2023/07/08 13:25:02;;;;;;;5.57;2.55;;;;;;;;;;5326738;28;20016;-73
2023/07/08 13:27:35;;;;;;;8.73;2.97;;;;;;;;;;5327214;28;20020;-73
2023/07/08 13:30:17;;;;;;;5.75;2.70;;;;;;;;;;5327726;28;20019;-74
2023/07/08 13:32:52;;;;;;;3.47;2.40;;;;;;;;;;5326931;28;20039;-73
2023/07/08 13:35:28;;;;;;;4.50;2.95;;;;;;;;;;5327522;28;20474;-73
2023/07/08 13:37:59;;;;;;;6.75;2.80;;;;;;;;;;5326396;28;20023;-74
2023/07/08 13:40:31;;;;;;;7.87;3.50;;;;;;;;;;5327191;28;20103;-73
2023/07/08 13:43:02;;;;;;;4.32;1.98;;;;;;;;;;5327100;28;20359;-74
2023/07/08 13:45:34;;;;;;;3.97;2.58;;;;;;;;;;5326548;28;20378;-74
2023/07/08 13:48:06;;;;;;;6.55;3.00;;;;;;;;;;5326977;28;20027;-74
2023/07/08 13:50:42;;;;;;;5.50;2.92;;;;;;;;;;5326899;28;20106;-75
2023/07/08 13:53:22;;;;;;;8.50;2.47;;;;;;;;;;5326534;28;20111;-75
2023/07/08 13:55:57;;;;;;;5.43;2.83;;;;;;;;;;5326634;28;20103;-74
2023/07/08 13:58:29;;;;;;;4.97;3.33;;;;;;;;;;5326021;28;20023;-74
2023/07/08 14:01:00;;;;;;;3.80;2.50;;;;;;;;;;5326946;28;20490;-74
2023/07/08 14:03:31;;;;;;;7.03;2.80;;;;;;;;;;5326924;28;20023;-74
2023/07/08 14:06:03;;;;;;;13.80;4.07;;;;;;;;;;5325967;28;20015;-74
2023/07/08 14:08:34;;;;;;;3.17;2.77;;;;;;;;;;5326656;28;20311;-75
2023/07/08 14:11:05;;;;;;;9.67;3.43;;;;;;;;;;5326462;28;20463;-75
2023/07/08 14:13:37;;;;;;;7.90;2.60;;;;;;;;;;5325691;28;20454;-74
2023/07/08 14:16:14;;;;;;;4.18;2.22;;;;;;;;;;5326656;28;20027;-75
2023/07/08 14:18:45;;;;;;;4.32;2.60;;;;;;;;;;5326211;28;20383;-74
2023/07/08 14:21:17;;;;;;;3.87;2.50;;;;;;;;;;5325311;28;20031;-74
2023/07/08 14:23:48;;;;;;;4.20;2.55;;;;;;;;;;5325811;28;20152;-74
2023/07/08 14:26:20;;;;;;;6.57;2.57;;;;;;;;;;5326778;28;20464;-74
2023/07/08 14:28:51;;;;;;;6.10;2.80;;;;;;;;;;5325333;28;20132;-74
2023/07/08 14:31:23;;;;;;;4.07;2.17;;;;;;;;;;5326247;28;20112;-75
2023/07/08 14:34:01;;;;;;;6.97;2.72;;;;;;;;;;5325240;28;20068;-74
2023/07/08 14:36:33;;;;;;;;;;;;;;;;;;5326538;28;20092;-74
2023/07/08 14:39:04;;;;;;;;;;;;;;;;;;5326382;28;19914;-73
2023/07/08 14:41:35;;;;;;;;;;;;;;;;;;5325798;28;20278;-73
2023/07/08 14:44:06;;;;;;;;;;;;;;;;;;5325244;28;19946;-73
2023/07/08 14:46:37;;;;;;;;;;;;;;;;;;5326099;28;20358;-73
2023/07/08 14:49:08;;;;;;;;;;;;;;;;;;5325297;28;20049;-73
2023/07/08 14:51:39;;;;;;;;;;;;;;;;;;5326097;28;20038;-74
2023/07/08 14:54:10;;;;;;;;;;;;;;;;;;5326011;28;19908;-74
2023/07/08 14:56:41;;;;;;;;;;;;;;;;;;5324355;28;20009;-75
2023/07/08 14:59:13;;;;;;;;;;;;;;;;;;5326818;28;19945;-76
2023/07/08 15:01:45;;;;;;;;;;;;;;;;;;5324858;28;19907;-74
2023/07/08 15:04:16;;;;;;;;;;;;;;;;;;5326369;28;19937;-74
2023/07/08 15:06:47;;;;;;;;;;;;;;;;;;5325797;28;19904;-73
2023/07/08 15:09:18;;;;;;;;;;;;;;;;;;5325385;28;19903;-73
2023/07/08 15:11:50;;;;;;;;;;;;;;;;;;5325258;28;19918;-74
2023/07/08 15:14:21;;;;;;;;;;;;;;;;;;5325924;28;19903;-73
2023/07/08 15:16:52;;;;;;;;;;;;;;;;;;5324830;28;19962;-73
2023/07/08 15:19:23;;;;;;;;;;;;;;;;;;5325896;28;19911;-74
2023/07/08 15:21:54;;;;;;;;;;;;;;;;;;5325091;28;19903;-74
2023/07/08 15:24:25;;;;;;;;;;;;;;;;;;5324754;28;20320;-74
2023/07/08 15:26:57;;;;;;;;;;;;;;;;;;5325220;28;20006;-74